sensor_id;sensor_type;location;lat;lon;timestamp;P1;durP1;ratioP1;P2;durP2;ratioP2
8113;SDS011;4099;52.684;9.918;2022-12-07T00:03:56;48.43;;;23.47;;
8113;SDS011;4099;52.684;9.918;2022-12-07T00:09:05;45.23;;;23.93;;
8113;SDS011;4099;52.684;9.918;2022-12-07T00:14:11;45.40;;;23.23;;
8113;SDS011;4099;52.684;9.918;2022-12-07T00:19:14;45.27;;;22.73;;
8113;SDS011;4099;52.684;9.918;2022-12-07T00:24:16;49.63;;;22.30;;
8113;SDS011;4099;52.684;9.918;2022-12-07T00:29:20;47.90;;;22.83;;
8113;SDS011;4099;52.684;9.918;2022-12-07T00:34:23;45.50;;;22.03;;
8113;SDS011;4099;52.684;9.918;2022-12-07T00:39:25;46.30;;;22.47;;
8113;SDS011;4099;52.684;9.918;2022-12-07T00:44:30;48.07;;;22.83;;
8113;SDS011;4099;52.684;9.918;2022-12-07T00:49:32;53.70;;;24.53;;
8113;SDS011;4099;52.684;9.918;2022-12-07T00:54:36;57.83;;;24.27;;
8113;SDS011;4099;52.684;9.918;2022-12-07T00:59:39;58.57;;;25.07;;
8113;SDS011;4099;52.684;9.918;2022-12-07T01:04:41;60.80;;;26.77;;
8113;SDS011;4099;52.684;9.918;2022-12-07T01:09:43;56.10;;;25.33;;
8113;SDS011;4099;52.684;9.918;2022-12-07T01:14:46;56.07;;;26.90;;
8113;SDS011;4099;52.684;9.918;2022-12-07T01:19:49;59.10;;;26.30;;
8113;SDS011;4099;52.684;9.918;2022-12-07T01:24:51;54.87;;;24.73;;
8113;SDS011;4099;52.684;9.918;2022-12-07T01:29:54;56.20;;;25.67;;
8113;SDS011;4099;52.684;9.918;2022-12-07T01:34:56;60.70;;;26.40;;
8113;SDS011;4099;52.684;9.918;2022-12-07T01:39:58;61.23;;;26.53;;
8113;SDS011;4099;52.684;9.918;2022-12-07T01:50:47;57.43;;;25.47;;
8113;SDS011;4099;52.684;9.918;2022-12-07T01:55:51;60.53;;;25.97;;
8113;SDS011;4099;52.684;9.918;2022-12-07T02:00:54;55.47;;;25.40;;
8113;SDS011;4099;52.684;9.918;2022-12-07T02:05:57;58.80;;;26.73;;
8113;SDS011;4099;52.684;9.918;2022-12-07T02:11:01;59.93;;;27.07;;
8113;SDS011;4099;52.684;9.918;2022-12-07T02:16:09;57.70;;;26.07;;
8113;SDS011;4099;52.684;9.918;2022-12-07T02:21:20;61.83;;;27.27;;
8113;SDS011;4099;52.684;9.918;2022-12-07T02:26:39;60.10;;;29.27;;
8113;SDS011;4099;52.684;9.918;2022-12-07T02:32:06;58.93;;;26.70;;
8113;SDS011;4099;52.684;9.918;2022-12-07T02:37:18;60.30;;;26.60;;
8113;SDS011;4099;52.684;9.918;2022-12-07T02:42:28;64.20;;;27.50;;
8113;SDS011;4099;52.684;9.918;2022-12-07T02:47:36;61.83;;;26.00;;
8113;SDS011;4099;52.684;9.918;2022-12-07T02:52:39;55.30;;;25.20;;
8113;SDS011;4099;52.684;9.918;2022-12-07T02:57:45;57.23;;;25.57;;
8113;SDS011;4099;52.684;9.918;2022-12-07T03:02:58;52.80;;;24.07;;
8113;SDS011;4099;52.684;9.918;2022-12-07T03:08:06;48.70;;;22.97;;
8113;SDS011;4099;52.684;9.918;2022-12-07T03:13:16;49.30;;;23.03;;
8113;SDS011;4099;52.684;9.918;2022-12-07T03:18:28;49.47;;;21.23;;
8113;SDS011;4099;52.684;9.918;2022-12-07T03:23:32;42.03;;;20.10;;
8113;SDS011;4099;52.684;9.918;2022-12-07T03:28:37;45.30;;;19.60;;
8113;SDS011;4099;52.684;9.918;2022-12-07T03:33:44;39.40;;;18.70;;
8113;SDS011;4099;52.684;9.918;2022-12-07T03:38:52;38.33;;;18.70;;
8113;SDS011;4099;52.684;9.918;2022-12-07T03:43:59;35.57;;;17.40;;
8113;SDS011;4099;52.684;9.918;2022-12-07T03:49:07;35.67;;;17.83;;
8113;SDS011;4099;52.684;9.918;2022-12-07T03:54:13;35.60;;;17.83;;
8113;SDS011;4099;52.684;9.918;2022-12-07T03:59:21;36.43;;;16.93;;
8113;SDS011;4099;52.684;9.918;2022-12-07T04:04:24;42.07;;;17.57;;
8113;SDS011;4099;52.684;9.918;2022-12-07T04:09:26;38.03;;;18.60;;
8113;SDS011;4099;52.684;9.918;2022-12-07T04:14:28;37.03;;;15.20;;
8113;SDS011;4099;52.684;9.918;2022-12-07T04:19:32;35.33;;;17.10;;
8113;SDS011;4099;52.684;9.918;2022-12-07T04:24:35;31.17;;;15.07;;
8113;SDS011;4099;52.684;9.918;2022-12-07T04:29:37;31.20;;;15.23;;
8113;SDS011;4099;52.684;9.918;2022-12-07T04:34:40;32.30;;;15.80;;
8113;SDS011;4099;52.684;9.918;2022-12-07T04:39:42;31.10;;;14.10;;
8113;SDS011;4099;52.684;9.918;2022-12-07T04:44:44;26.90;;;14.30;;
8113;SDS011;4099;52.684;9.918;2022-12-07T04:49:48;28.13;;;13.70;;
8113;SDS011;4099;52.684;9.918;2022-12-07T04:54:49;28.27;;;13.33;;
8113;SDS011;4099;52.684;9.918;2022-12-07T04:59:52;24.53;;;12.83;;
8113;SDS011;4099;52.684;9.918;2022-12-07T05:04:55;23.07;;;11.63;;
8113;SDS011;4099;52.684;9.918;2022-12-07T05:09:57;24.17;;;11.90;;
8113;SDS011;4099;52.684;9.918;2022-12-07T05:15:00;25.37;;;10.30;;
8113;SDS011;4099;52.684;9.918;2022-12-07T05:20:04;23.30;;;11.00;;
8113;SDS011;4099;52.684;9.918;2022-12-07T05:25:08;21.03;;;11.07;;
8113;SDS011;4099;52.684;9.918;2022-12-07T05:30:11;19.60;;;9.80;;
8113;SDS011;4099;52.684;9.918;2022-12-07T05:35:15;20.63;;;9.77;;
8113;SDS011;4099;52.684;9.918;2022-12-07T05:40:17;15.73;;;9.03;;
8113;SDS011;4099;52.684;9.918;2022-12-07T05:45:19;18.83;;;8.23;;
8113;SDS011;4099;52.684;9.918;2022-12-07T05:50:22;14.63;;;7.23;;
8113;SDS011;4099;52.684;9.918;2022-12-07T05:55:34;18.47;;;7.83;;
8113;SDS011;4099;52.684;9.918;2022-12-07T06:00:35;17.43;;;8.93;;
8113;SDS011;4099;52.684;9.918;2022-12-07T06:05:39;22.53;;;12.20;;
8113;SDS011;4099;52.684;9.918;2022-12-07T06:10:41;23.60;;;11.60;;
8113;SDS011;4099;52.684;9.918;2022-12-07T06:15:43;22.87;;;13.33;;
8113;SDS011;4099;52.684;9.918;2022-12-07T06:20:46;34.30;;;17.43;;
8113;SDS011;4099;52.684;9.918;2022-12-07T06:25:48;21.60;;;10.67;;
8113;SDS011;4099;52.684;9.918;2022-12-07T06:30:56;18.40;;;10.37;;
8113;SDS011;4099;52.684;9.918;2022-12-07T06:35:59;18.73;;;9.67;;
8113;SDS011;4099;52.684;9.918;2022-12-07T06:41:01;22.67;;;10.00;;
8113;SDS011;4099;52.684;9.918;2022-12-07T06:46:03;20.10;;;11.10;;
8113;SDS011;4099;52.684;9.918;2022-12-07T06:51:07;19.67;;;10.77;;
8113;SDS011;4099;52.684;9.918;2022-12-07T06:56:09;24.57;;;14.17;;
8113;SDS011;4099;52.684;9.918;2022-12-07T07:01:11;26.40;;;13.83;;
8113;SDS011;4099;52.684;9.918;2022-12-07T07:06:15;22.00;;;11.27;;
8113;SDS011;4099;52.684;9.918;2022-12-07T07:11:17;23.63;;;12.70;;
8113;SDS011;4099;52.684;9.918;2022-12-07T07:16:19;27.07;;;13.83;;
8113;SDS011;4099;52.684;9.918;2022-12-07T07:21:23;23.87;;;14.33;;
8113;SDS011;4099;52.684;9.918;2022-12-07T07:26:24;21.73;;;12.83;;
8113;SDS011;4099;52.684;9.918;2022-12-07T07:31:26;20.43;;;12.47;;
8113;SDS011;4099;52.684;9.918;2022-12-07T07:36:30;21.57;;;12.70;;
8113;SDS011;4099;52.684;9.918;2022-12-07T07:41:32;24.77;;;13.83;;
8113;SDS011;4099;52.684;9.918;2022-12-07T07:46:35;27.73;;;16.00;;
8113;SDS011;4099;52.684;9.918;2022-12-07T07:51:38;21.80;;;12.30;;
8113;SDS011;4099;52.684;9.918;2022-12-07T07:56:40;44.20;;;32.50;;
8113;SDS011;4099;52.684;9.918;2022-12-07T08:01:42;21.10;;;11.47;;
8113;SDS011;4099;52.684;9.918;2022-12-07T08:06:45;17.80;;;11.17;;
8113;SDS011;4099;52.684;9.918;2022-12-07T08:11:47;19.73;;;11.63;;
8113;SDS011;4099;52.684;9.918;2022-12-07T08:16:49;15.90;;;10.13;;
8113;SDS011;4099;52.684;9.918;2022-12-07T08:21:52;16.13;;;10.07;;
8113;SDS011;4099;52.684;9.918;2022-12-07T08:26:55;13.40;;;8.77;;
8113;SDS011;4099;52.684;9.918;2022-12-07T08:31:57;16.57;;;7.87;;
8113;SDS011;4099;52.684;9.918;2022-12-07T08:37:02;20.63;;;13.10;;
8113;SDS011;4099;52.684;9.918;2022-12-07T08:42:04;14.77;;;9.00;;
8113;SDS011;4099;52.684;9.918;2022-12-07T08:47:06;18.07;;;9.27;;
8113;SDS011;4099;52.684;9.918;2022-12-07T08:52:10;12.63;;;9.07;;
8113;SDS011;4099;52.684;9.918;2022-12-07T08:57:12;17.27;;;10.27;;
8113;SDS011;4099;52.684;9.918;2022-12-07T09:02:14;20.97;;;10.73;;
8113;SDS011;4099;52.684;9.918;2022-12-07T09:07:18;15.17;;;10.57;;
8113;SDS011;4099;52.684;9.918;2022-12-07T09:12:20;18.47;;;10.00;;
8113;SDS011;4099;52.684;9.918;2022-12-07T09:17:23;15.83;;;9.40;;
8113;SDS011;4099;52.684;9.918;2022-12-07T09:22:26;17.37;;;9.07;;
8113;SDS011;4099;52.684;9.918;2022-12-07T09:27:30;14.80;;;9.10;;
8113;SDS011;4099;52.684;9.918;2022-12-07T09:32:33;14.20;;;8.23;;
8113;SDS011;4099;52.684;9.918;2022-12-07T09:37:36;10.53;;;7.73;;
8113;SDS011;4099;52.684;9.918;2022-12-07T09:42:39;9.97;;;7.30;;
8113;SDS011;4099;52.684;9.918;2022-12-07T09:47:44;11.37;;;7.13;;
8113;SDS011;4099;52.684;9.918;2022-12-07T09:52:48;10.63;;;6.73;;
8113;SDS011;4099;52.684;9.918;2022-12-07T09:57:50;11.53;;;6.93;;
8113;SDS011;4099;52.684;9.918;2022-12-07T10:02:55;10.07;;;6.83;;
8113;SDS011;4099;52.684;9.918;2022-12-07T10:07:59;10.80;;;6.80;;
8113;SDS011;4099;52.684;9.918;2022-12-07T10:13:01;11.00;;;6.20;;
8113;SDS011;4099;52.684;9.918;2022-12-07T10:18:14;7.47;;;5.50;;
8113;SDS011;4099;52.684;9.918;2022-12-07T10:23:21;9.63;;;5.43;;
8113;SDS011;4099;52.684;9.918;2022-12-07T10:28:23;8.13;;;5.70;;
8113;SDS011;4099;52.684;9.918;2022-12-07T10:33:36;6.23;;;4.83;;
8113;SDS011;4099;52.684;9.918;2022-12-07T10:38:41;13.13;;;6.97;;
8113;SDS011;4099;52.684;9.918;2022-12-07T10:43:51;8.53;;;6.00;;
8113;SDS011;4099;52.684;9.918;2022-12-07T10:48:55;7.17;;;5.13;;
8113;SDS011;4099;52.684;9.918;2022-12-07T10:54:10;5.97;;;5.33;;
8113;SDS011;4099;52.684;9.918;2022-12-07T10:59:23;6.50;;;5.50;;
8113;SDS011;4099;52.684;9.918;2022-12-07T11:04:35;4.60;;;4.13;;
8113;SDS011;4099;52.684;9.918;2022-12-07T11:15:14;14.23;;;7.00;;
8113;SDS011;4099;52.684;9.918;2022-12-07T11:20:24;6.53;;;4.90;;
8113;SDS011;4099;52.684;9.918;2022-12-07T11:25:42;6.70;;;4.33;;
8113;SDS011;4099;52.684;9.918;2022-12-07T11:30:55;4.43;;;3.80;;
8113;SDS011;4099;52.684;9.918;2022-12-07T11:36:08;7.40;;;4.60;;
8113;SDS011;4099;52.684;9.918;2022-12-07T11:41:34;8.17;;;3.70;;
8113;SDS011;4099;52.684;9.918;2022-12-07T11:46:43;5.17;;;3.23;;
8113;SDS011;4099;52.684;9.918;2022-12-07T11:51:48;4.93;;;2.70;;
8113;SDS011;4099;52.684;9.918;2022-12-07T11:56:56;4.60;;;2.93;;
8113;SDS011;4099;52.684;9.918;2022-12-07T12:02:08;2.90;;;2.40;;
8113;SDS011;4099;52.684;9.918;2022-12-07T12:07:15;6.20;;;2.87;;
8113;SDS011;4099;52.684;9.918;2022-12-07T12:12:33;5.40;;;3.17;;
8113;SDS011;4099;52.684;9.918;2022-12-07T12:23:23;5.63;;;3.70;;
8113;SDS011;4099;52.684;9.918;2022-12-07T12:28:31;5.50;;;3.33;;
8113;SDS011;4099;52.684;9.918;2022-12-07T12:33:42;5.93;;;4.57;;
8113;SDS011;4099;52.684;9.918;2022-12-07T12:38:50;7.00;;;3.47;;
8113;SDS011;4099;52.684;9.918;2022-12-07T12:49:42;10.60;;;5.07;;
8113;SDS011;4099;52.684;9.918;2022-12-07T12:54:57;7.30;;;5.30;;
8113;SDS011;4099;52.684;9.918;2022-12-07T13:00:02;8.00;;;5.20;;
8113;SDS011;4099;52.684;9.918;2022-12-07T13:05:19;6.13;;;4.30;;
8113;SDS011;4099;52.684;9.918;2022-12-07T13:15:44;6.57;;;3.60;;
8113;SDS011;4099;52.684;9.918;2022-12-07T13:20:50;5.70;;;4.30;;
8113;SDS011;4099;52.684;9.918;2022-12-07T13:26:01;8.97;;;3.60;;
8113;SDS011;4099;52.684;9.918;2022-12-07T13:31:14;6.13;;;3.40;;
8113;SDS011;4099;52.684;9.918;2022-12-07T13:36:34;5.73;;;3.93;;
8113;SDS011;4099;52.684;9.918;2022-12-07T13:41:41;6.90;;;5.03;;
8113;SDS011;4099;52.684;9.918;2022-12-07T13:46:52;8.63;;;4.10;;
8113;SDS011;4099;52.684;9.918;2022-12-07T13:52:14;8.50;;;7.33;;
8113;SDS011;4099;52.684;9.918;2022-12-07T13:57:17;7.73;;;5.70;;
8113;SDS011;4099;52.684;9.918;2022-12-07T14:02:21;7.03;;;4.80;;
8113;SDS011;4099;52.684;9.918;2022-12-07T14:07:27;8.73;;;5.33;;
8113;SDS011;4099;52.684;9.918;2022-12-07T14:12:30;7.13;;;5.00;;
8113;SDS011;4099;52.684;9.918;2022-12-07T14:17:33;8.40;;;4.80;;
8113;SDS011;4099;52.684;9.918;2022-12-07T14:22:36;5.97;;;4.97;;
8113;SDS011;4099;52.684;9.918;2022-12-07T14:27:40;4.17;;;2.13;;
8113;SDS011;4099;52.684;9.918;2022-12-07T14:32:51;4.60;;;2.43;;
8113;SDS011;4099;52.684;9.918;2022-12-07T14:37:56;4.20;;;3.10;;
8113;SDS011;4099;52.684;9.918;2022-12-07T14:43:01;6.77;;;2.07;;
8113;SDS011;4099;52.684;9.918;2022-12-07T14:48:04;4.83;;;3.13;;
8113;SDS011;4099;52.684;9.918;2022-12-07T14:53:09;3.40;;;2.17;;
8113;SDS011;4099;52.684;9.918;2022-12-07T14:58:15;2.97;;;2.30;;
8113;SDS011;4099;52.684;9.918;2022-12-07T15:03:18;8.93;;;4.30;;
8113;SDS011;4099;52.684;9.918;2022-12-07T15:08:22;5.73;;;3.50;;
8113;SDS011;4099;52.684;9.918;2022-12-07T15:13:24;6.60;;;4.27;;
8113;SDS011;4099;52.684;9.918;2022-12-07T15:18:43;5.57;;;3.57;;
8113;SDS011;4099;52.684;9.918;2022-12-07T15:23:47;6.13;;;3.90;;
8113;SDS011;4099;52.684;9.918;2022-12-07T15:28:49;4.50;;;3.43;;
8113;SDS011;4099;52.684;9.918;2022-12-07T15:33:52;5.43;;;3.50;;
8113;SDS011;4099;52.684;9.918;2022-12-07T15:38:55;7.37;;;5.10;;
8113;SDS011;4099;52.684;9.918;2022-12-07T15:43:57;8.17;;;6.63;;
8113;SDS011;4099;52.684;9.918;2022-12-07T15:49:17;10.73;;;8.13;;
8113;SDS011;4099;52.684;9.918;2022-12-07T15:54:22;8.17;;;4.60;;
8113;SDS011;4099;52.684;9.918;2022-12-07T15:59:26;25.17;;;13.63;;
8113;SDS011;4099;52.684;9.918;2022-12-07T16:04:29;19.60;;;12.27;;
8113;SDS011;4099;52.684;9.918;2022-12-07T16:09:34;7.03;;;4.37;;
8113;SDS011;4099;52.684;9.918;2022-12-07T16:14:36;6.73;;;4.20;;
8113;SDS011;4099;52.684;9.918;2022-12-07T16:19:39;7.03;;;4.00;;
8113;SDS011;4099;52.684;9.918;2022-12-07T16:24:44;3.10;;;1.70;;
8113;SDS011;4099;52.684;9.918;2022-12-07T16:29:46;4.37;;;2.30;;
8113;SDS011;4099;52.684;9.918;2022-12-07T16:34:47;2.83;;;2.40;;
8113;SDS011;4099;52.684;9.918;2022-12-07T16:39:51;7.43;;;4.63;;
8113;SDS011;4099;52.684;9.918;2022-12-07T16:44:52;5.20;;;4.07;;
8113;SDS011;4099;52.684;9.918;2022-12-07T16:49:55;4.83;;;2.93;;
8113;SDS011;4099;52.684;9.918;2022-12-07T16:54:58;6.53;;;3.60;;
8113;SDS011;4099;52.684;9.918;2022-12-07T17:00:00;6.73;;;5.40;;
8113;SDS011;4099;52.684;9.918;2022-12-07T17:05:03;10.57;;;6.40;;
8113;SDS011;4099;52.684;9.918;2022-12-07T17:10:08;13.07;;;9.03;;
8113;SDS011;4099;52.684;9.918;2022-12-07T17:15:11;18.13;;;12.30;;
8113;SDS011;4099;52.684;9.918;2022-12-07T17:20:21;13.03;;;8.43;;
8113;SDS011;4099;52.684;9.918;2022-12-07T17:25:27;9.63;;;8.13;;
8113;SDS011;4099;52.684;9.918;2022-12-07T17:30:29;9.90;;;6.27;;
8113;SDS011;4099;52.684;9.918;2022-12-07T17:35:31;10.97;;;7.07;;
8113;SDS011;4099;52.684;9.918;2022-12-07T17:40:34;9.77;;;7.43;;
8113;SDS011;4099;52.684;9.918;2022-12-07T17:45:36;10.70;;;7.00;;
8113;SDS011;4099;52.684;9.918;2022-12-07T17:50:39;11.23;;;5.53;;
8113;SDS011;4099;52.684;9.918;2022-12-07T17:56:00;11.53;;;6.23;;
8113;SDS011;4099;52.684;9.918;2022-12-07T18:01:01;8.20;;;5.83;;
8113;SDS011;4099;52.684;9.918;2022-12-07T18:06:09;12.07;;;7.47;;
8113;SDS011;4099;52.684;9.918;2022-12-07T18:11:12;11.57;;;6.37;;
8113;SDS011;4099;52.684;9.918;2022-12-07T18:16:15;17.23;;;10.13;;
8113;SDS011;4099;52.684;9.918;2022-12-07T18:21:19;9.13;;;6.40;;
8113;SDS011;4099;52.684;9.918;2022-12-07T18:26:24;11.30;;;6.67;;
8113;SDS011;4099;52.684;9.918;2022-12-07T18:31:26;12.93;;;6.00;;
8113;SDS011;4099;52.684;9.918;2022-12-07T18:36:28;10.20;;;5.90;;
8113;SDS011;4099;52.684;9.918;2022-12-07T18:41:32;10.67;;;6.83;;
8113;SDS011;4099;52.684;9.918;2022-12-07T18:46:34;10.73;;;7.20;;
8113;SDS011;4099;52.684;9.918;2022-12-07T18:51:37;11.97;;;7.33;;
8113;SDS011;4099;52.684;9.918;2022-12-07T18:56:40;10.43;;;7.37;;
8113;SDS011;4099;52.684;9.918;2022-12-07T19:01:43;10.63;;;8.17;;
8113;SDS011;4099;52.684;9.918;2022-12-07T19:06:47;13.33;;;8.80;;
8113;SDS011;4099;52.684;9.918;2022-12-07T19:11:51;12.03;;;9.50;;
8113;SDS011;4099;52.684;9.918;2022-12-07T19:16:55;12.93;;;8.57;;
8113;SDS011;4099;52.684;9.918;2022-12-07T19:21:58;14.67;;;10.17;;
8113;SDS011;4099;52.684;9.918;2022-12-07T19:27:02;15.97;;;10.73;;
8113;SDS011;4099;52.684;9.918;2022-12-07T19:32:05;10.30;;;7.33;;
8113;SDS011;4099;52.684;9.918;2022-12-07T19:37:08;9.53;;;6.53;;
8113;SDS011;4099;52.684;9.918;2022-12-07T19:42:12;9.03;;;6.07;;
8113;SDS011;4099;52.684;9.918;2022-12-07T19:47:16;6.00;;;4.87;;
8113;SDS011;4099;52.684;9.918;2022-12-07T19:52:18;10.77;;;5.70;;
8113;SDS011;4099;52.684;9.918;2022-12-07T19:57:21;10.50;;;6.70;;
8113;SDS011;4099;52.684;9.918;2022-12-07T20:02:23;11.23;;;6.90;;
8113;SDS011;4099;52.684;9.918;2022-12-07T20:07:25;11.43;;;7.23;;
8113;SDS011;4099;52.684;9.918;2022-12-07T20:12:28;12.10;;;7.90;;
8113;SDS011;4099;52.684;9.918;2022-12-07T20:17:59;11.90;;;7.37;;
8113;SDS011;4099;52.684;9.918;2022-12-07T20:23:00;11.67;;;7.70;;
8113;SDS011;4099;52.684;9.918;2022-12-07T20:28:04;14.03;;;9.37;;
8113;SDS011;4099;52.684;9.918;2022-12-07T20:33:06;18.27;;;9.93;;
8113;SDS011;4099;52.684;9.918;2022-12-07T20:38:08;14.07;;;9.50;;
8113;SDS011;4099;52.684;9.918;2022-12-07T20:43:12;22.53;;;11.53;;
8113;SDS011;4099;52.684;9.918;2022-12-07T20:48:14;15.37;;;9.27;;
8113;SDS011;4099;52.684;9.918;2022-12-07T20:53:16;16.40;;;9.70;;
8113;SDS011;4099;52.684;9.918;2022-12-07T20:58:20;15.93;;;8.83;;
8113;SDS011;4099;52.684;9.918;2022-12-07T21:03:21;13.70;;;8.97;;
8113;SDS011;4099;52.684;9.918;2022-12-07T21:08:23;14.87;;;9.50;;
8113;SDS011;4099;52.684;9.918;2022-12-07T21:13:26;22.33;;;11.23;;
8113;SDS011;4099;52.684;9.918;2022-12-07T21:18:28;18.07;;;10.73;;
8113;SDS011;4099;52.684;9.918;2022-12-07T21:23:30;14.57;;;10.60;;
8113;SDS011;4099;52.684;9.918;2022-12-07T21:28:34;18.03;;;11.37;;
8113;SDS011;4099;52.684;9.918;2022-12-07T21:33:36;21.67;;;13.30;;
8113;SDS011;4099;52.684;9.918;2022-12-07T21:38:41;29.03;;;14.10;;
8113;SDS011;4099;52.684;9.918;2022-12-07T21:43:45;37.03;;;15.80;;
8113;SDS011;4099;52.684;9.918;2022-12-07T21:48:48;23.30;;;11.47;;
8113;SDS011;4099;52.684;9.918;2022-12-07T21:53:51;20.57;;;11.53;;
8113;SDS011;4099;52.684;9.918;2022-12-07T21:58:57;23.77;;;11.77;;
8113;SDS011;4099;52.684;9.918;2022-12-07T22:04:00;19.47;;;10.80;;
8113;SDS011;4099;52.684;9.918;2022-12-07T22:09:02;20.07;;;10.10;;
8113;SDS011;4099;52.684;9.918;2022-12-07T22:14:06;13.57;;;9.23;;
8113;SDS011;4099;52.684;9.918;2022-12-07T22:19:27;18.63;;;10.10;;
8113;SDS011;4099;52.684;9.918;2022-12-07T22:24:29;16.30;;;9.50;;
8113;SDS011;4099;52.684;9.918;2022-12-07T22:29:34;15.67;;;10.37;;
8113;SDS011;4099;52.684;9.918;2022-12-07T22:34:36;21.40;;;9.80;;
8113;SDS011;4099;52.684;9.918;2022-12-07T22:39:38;15.47;;;10.13;;
8113;SDS011;4099;52.684;9.918;2022-12-07T22:44:41;16.37;;;10.63;;
8113;SDS011;4099;52.684;9.918;2022-12-07T22:49:43;25.37;;;12.03;;
8113;SDS011;4099;52.684;9.918;2022-12-07T22:54:45;15.80;;;10.63;;
8113;SDS011;4099;52.684;9.918;2022-12-07T22:59:48;20.60;;;11.20;;
8113;SDS011;4099;52.684;9.918;2022-12-07T23:04:53;19.80;;;11.40;;
8113;SDS011;4099;52.684;9.918;2022-12-07T23:09:55;19.57;;;10.77;;
8113;SDS011;4099;52.684;9.918;2022-12-07T23:14:58;15.13;;;11.23;;
8113;SDS011;4099;52.684;9.918;2022-12-07T23:20:00;18.30;;;10.17;;
8113;SDS011;4099;52.684;9.918;2022-12-07T23:25:02;19.23;;;11.23;;
8113;SDS011;4099;52.684;9.918;2022-12-07T23:30:06;22.73;;;12.43;;
8113;SDS011;4099;52.684;9.918;2022-12-07T23:35:09;22.60;;;12.13;;
8113;SDS011;4099;52.684;9.918;2022-12-07T23:40:11;20.60;;;12.40;;
8113;SDS011;4099;52.684;9.918;2022-12-07T23:45:14;20.13;;;13.47;;
8113;SDS011;4099;52.684;9.918;2022-12-07T23:50:16;24.53;;;15.07;;
8113;SDS011;4099;52.684;9.918;2022-12-07T23:55:18;26.87;;;13.67;;
